sensor_id;sensor_type;location;lat;lon;timestamp;pressure;altitude;pressure_sealevel;temperature;humidity
30081;BME280;16902;50.816;12.828;2023-06-26T00:03:38;97862.91;;;14.42;100.00
30081;BME280;16902;50.816;12.828;2023-06-26T00:08:40;97852.22;;;14.37;100.00
30081;BME280;16902;50.816;12.828;2023-06-26T00:13:42;97851.44;;;14.36;100.00
30081;BME280;16902;50.816;12.828;2023-06-26T00:18:44;97850.81;;;14.28;100.00
30081;BME280;16902;50.816;12.828;2023-06-26T00:23:45;97851.63;;;14.28;100.00
30081;BME280;16902;50.816;12.828;2023-06-26T00:28:47;97855.03;;;14.22;100.00
30081;BME280;16902;50.816;12.828;2023-06-26T00:33:49;97852.59;;;14.14;100.00
30081;BME280;16902;50.816;12.828;2023-06-26T00:38:50;97845.56;;;14.14;100.00
30081;BME280;16902;50.816;12.828;2023-06-26T00:43:52;97851.38;;;14.10;100.00
30081;BME280;16902;50.816;12.828;2023-06-26T00:48:55;97841.72;;;14.04;100.00
30081;BME280;16902;50.816;12.828;2023-06-26T00:53:57;97840.28;;;13.95;100.00
30081;BME280;16902;50.816;12.828;2023-06-26T00:58:59;97842.72;;;13.96;100.00
30081;BME280;16902;50.816;12.828;2023-06-26T01:04:01;97838.09;;;13.98;100.00
30081;BME280;16902;50.816;12.828;2023-06-26T01:09:03;97835.88;;;14.08;100.00
30081;BME280;16902;50.816;12.828;2023-06-26T01:14:05;97822.59;;;14.23;100.00
30081;BME280;16902;50.816;12.828;2023-06-26T01:19:10;97824.81;;;14.20;100.00
30081;BME280;16902;50.816;12.828;2023-06-26T01:24:17;97826.25;;;14.22;100.00
30081;BME280;16902;50.816;12.828;2023-06-26T01:29:25;97816.16;;;14.26;100.00
30081;BME280;16902;50.816;12.828;2023-06-26T01:34:27;97811.72;;;14.26;100.00
30081;BME280;16902;50.816;12.828;2023-06-26T01:39:29;97809.50;;;14.17;100.00
30081;BME280;16902;50.816;12.828;2023-06-26T01:44:35;97808.91;;;14.14;100.00
30081;BME280;16902;50.816;12.828;2023-06-26T01:49:47;97799.84;;;14.04;100.00
30081;BME280;16902;50.816;12.828;2023-06-26T01:55:02;97799.81;;;13.91;100.00
30081;BME280;16902;50.816;12.828;2023-06-26T02:00:05;97792.97;;;13.83;100.00
30081;BME280;16902;50.816;12.828;2023-06-26T02:05:15;97789.34;;;13.84;100.00
30081;BME280;16902;50.816;12.828;2023-06-26T02:10:17;97788.72;;;13.82;100.00
30081;BME280;16902;50.816;12.828;2023-06-26T02:15:19;97781.09;;;13.74;100.00
30081;BME280;16902;50.816;12.828;2023-06-26T02:20:20;97779.06;;;13.69;100.00
30081;BME280;16902;50.816;12.828;2023-06-26T02:25:23;97786.09;;;13.62;100.00
30081;BME280;16902;50.816;12.828;2023-06-26T02:30:26;97781.44;;;13.57;100.00
30081;BME280;16902;50.816;12.828;2023-06-26T02:35:28;97792.13;;;13.56;100.00
30081;BME280;16902;50.816;12.828;2023-06-26T02:40:29;97783.03;;;13.52;100.00
30081;BME280;16902;50.816;12.828;2023-06-26T02:45:32;97778.81;;;13.44;100.00
30081;BME280;16902;50.816;12.828;2023-06-26T02:50:34;97784.81;;;13.38;100.00
30081;BME280;16902;50.816;12.828;2023-06-26T02:55:45;97779.56;;;13.31;100.00
30081;BME280;16902;50.816;12.828;2023-06-26T03:00:49;97780.97;;;13.27;100.00
30081;BME280;16902;50.816;12.828;2023-06-26T03:05:53;97769.53;;;13.35;100.00
30081;BME280;16902;50.816;12.828;2023-06-26T03:10:54;97760.69;;;13.36;100.00
30081;BME280;16902;50.816;12.828;2023-06-26T03:15:56;97766.91;;;13.35;100.00
30081;BME280;16902;50.816;12.828;2023-06-26T03:20:58;97768.91;;;13.33;100.00
30081;BME280;16902;50.816;12.828;2023-06-26T03:26:01;97761.28;;;13.38;100.00
30081;BME280;16902;50.816;12.828;2023-06-26T03:31:08;97764.09;;;13.43;100.00
30081;BME280;16902;50.816;12.828;2023-06-26T03:36:10;97759.28;;;13.47;100.00
30081;BME280;16902;50.816;12.828;2023-06-26T03:41:12;97761.09;;;13.53;100.00
30081;BME280;16902;50.816;12.828;2023-06-26T03:46:15;97756.09;;;13.58;100.00
30081;BME280;16902;50.816;12.828;2023-06-26T03:51:17;97762.75;;;13.67;100.00
30081;BME280;16902;50.816;12.828;2023-06-26T03:56:19;97761.97;;;13.80;100.00
30081;BME280;16902;50.816;12.828;2023-06-26T04:01:22;97746.69;;;14.03;100.00
30081;BME280;16902;50.816;12.828;2023-06-26T04:06:24;97748.25;;;14.31;100.00
30081;BME280;16902;50.816;12.828;2023-06-26T04:11:27;97746.84;;;14.55;100.00
30081;BME280;16902;50.816;12.828;2023-06-26T04:16:29;97737.31;;;14.80;100.00
30081;BME280;16902;50.816;12.828;2023-06-26T04:21:31;97740.22;;;15.10;100.00
30081;BME280;16902;50.816;12.828;2023-06-26T04:26:33;97742.28;;;15.40;100.00
30081;BME280;16902;50.816;12.828;2023-06-26T04:31:35;97741.41;;;15.53;100.00
30081;BME280;16902;50.816;12.828;2023-06-26T04:36:36;97742.56;;;15.57;100.00
30081;BME280;16902;50.816;12.828;2023-06-26T04:41:40;97737.75;;;15.54;100.00
30081;BME280;16902;50.816;12.828;2023-06-26T04:46:42;97736.31;;;15.58;100.00
30081;BME280;16902;50.816;12.828;2023-06-26T04:51:44;97736.69;;;15.61;100.00
30081;BME280;16902;50.816;12.828;2023-06-26T04:56:46;97730.81;;;15.73;100.00
30081;BME280;16902;50.816;12.828;2023-06-26T05:01:48;97724.63;;;15.85;100.00
30081;BME280;16902;50.816;12.828;2023-06-26T05:06:50;97733.38;;;16.04;100.00
30081;BME280;16902;50.816;12.828;2023-06-26T05:11:52;97725.53;;;16.23;100.00
30081;BME280;16902;50.816;12.828;2023-06-26T05:16:53;97727.41;;;16.40;100.00
30081;BME280;16902;50.816;12.828;2023-06-26T05:21:55;97722.97;;;16.59;100.00
30081;BME280;16902;50.816;12.828;2023-06-26T05:26:57;97716.47;;;16.80;100.00
30081;BME280;16902;50.816;12.828;2023-06-26T05:31:59;97714.75;;;17.04;100.00
30081;BME280;16902;50.816;12.828;2023-06-26T05:37:01;97711.44;;;17.27;100.00
30081;BME280;16902;50.816;12.828;2023-06-26T05:42:03;97707.19;;;17.56;100.00
30081;BME280;16902;50.816;12.828;2023-06-26T05:47:05;97712.88;;;17.95;100.00
30081;BME280;16902;50.816;12.828;2023-06-26T05:52:08;97708.66;;;18.29;100.00
30081;BME280;16902;50.816;12.828;2023-06-26T05:57:10;97700.94;;;18.51;100.00
30081;BME280;16902;50.816;12.828;2023-06-26T06:02:13;97704.34;;;18.75;100.00
30081;BME280;16902;50.816;12.828;2023-06-26T06:07:15;97704.47;;;19.09;100.00
30081;BME280;16902;50.816;12.828;2023-06-26T06:12:17;97702.78;;;19.76;100.00
30081;BME280;16902;50.816;12.828;2023-06-26T06:17:22;97709.97;;;20.32;100.00
30081;BME280;16902;50.816;12.828;2023-06-26T06:22:24;97707.03;;;20.67;100.00
30081;BME280;16902;50.816;12.828;2023-06-26T06:27:27;97709.53;;;21.00;100.00
30081;BME280;16902;50.816;12.828;2023-06-26T06:32:28;97710.75;;;21.15;100.00
30081;BME280;16902;50.816;12.828;2023-06-26T06:37:30;97710.28;;;21.45;100.00
30081;BME280;16902;50.816;12.828;2023-06-26T06:42:33;97713.22;;;21.80;100.00
30081;BME280;16902;50.816;12.828;2023-06-26T06:47:35;97717.31;;;22.25;100.00
30081;BME280;16902;50.816;12.828;2023-06-26T06:52:38;97717.50;;;22.61;100.00
30081;BME280;16902;50.816;12.828;2023-06-26T06:57:40;97708.03;;;22.80;100.00
30081;BME280;16902;50.816;12.828;2023-06-26T07:02:44;97704.16;;;22.98;100.00
30081;BME280;16902;50.816;12.828;2023-06-26T07:07:46;97703.69;;;23.22;100.00
30081;BME280;16902;50.816;12.828;2023-06-26T07:12:47;97691.50;;;23.46;100.00
30081;BME280;16902;50.816;12.828;2023-06-26T07:17:49;97692.34;;;23.67;100.00
30081;BME280;16902;50.816;12.828;2023-06-26T07:22:52;97688.38;;;23.80;100.00
30081;BME280;16902;50.816;12.828;2023-06-26T07:27:54;97690.47;;;23.88;100.00
30081;BME280;16902;50.816;12.828;2023-06-26T07:32:56;97697.91;;;24.06;100.00
30081;BME280;16902;50.816;12.828;2023-06-26T07:37:57;97694.66;;;24.30;100.00
30081;BME280;16902;50.816;12.828;2023-06-26T07:42:59;97691.19;;;24.45;100.00
30081;BME280;16902;50.816;12.828;2023-06-26T07:48:01;97682.34;;;24.65;100.00
30081;BME280;16902;50.816;12.828;2023-06-26T07:53:04;97691.00;;;24.96;100.00
30081;BME280;16902;50.816;12.828;2023-06-26T07:58:07;97694.69;;;25.05;100.00
30081;BME280;16902;50.816;12.828;2023-06-26T08:03:09;97694.06;;;25.23;100.00
30081;BME280;16902;50.816;12.828;2023-06-26T08:08:26;97689.34;;;25.54;100.00
30081;BME280;16902;50.816;12.828;2023-06-26T08:13:27;97684.38;;;25.77;100.00
30081;BME280;16902;50.816;12.828;2023-06-26T08:18:29;97688.03;;;25.86;100.00
30081;BME280;16902;50.816;12.828;2023-06-26T08:23:31;97678.31;;;26.00;100.00
30081;BME280;16902;50.816;12.828;2023-06-26T08:28:33;97680.09;;;26.34;100.00
30081;BME280;16902;50.816;12.828;2023-06-26T08:33:35;97671.31;;;26.57;100.00
30081;BME280;16902;50.816;12.828;2023-06-26T08:38:36;97679.63;;;26.56;100.00
30081;BME280;16902;50.816;12.828;2023-06-26T08:43:38;97673.53;;;26.74;100.00
30081;BME280;16902;50.816;12.828;2023-06-26T08:48:41;97676.28;;;26.88;100.00
30081;BME280;16902;50.816;12.828;2023-06-26T08:53:59;97667.84;;;27.00;100.00
30081;BME280;16902;50.816;12.828;2023-06-26T08:59:01;97670.72;;;27.08;100.00
30081;BME280;16902;50.816;12.828;2023-06-26T09:04:03;97676.75;;;27.33;100.00
30081;BME280;16902;50.816;12.828;2023-06-26T09:09:05;97662.06;;;27.49;100.00
30081;BME280;16902;50.816;12.828;2023-06-26T09:14:07;97667.94;;;27.51;100.00
30081;BME280;16902;50.816;12.828;2023-06-26T09:19:12;97672.31;;;27.61;99.46
30081;BME280;16902;50.816;12.828;2023-06-26T09:24:14;97671.13;;;27.86;100.00
30081;BME280;16902;50.816;12.828;2023-06-26T09:29:17;97669.69;;;28.07;99.90
30081;BME280;16902;50.816;12.828;2023-06-26T09:34:19;97669.69;;;28.21;91.92
30081;BME280;16902;50.816;12.828;2023-06-26T09:39:21;97666.81;;;28.17;86.84
30081;BME280;16902;50.816;12.828;2023-06-26T09:44:23;97662.97;;;28.51;80.36
30081;BME280;16902;50.816;12.828;2023-06-26T09:49:25;97662.66;;;28.66;71.89
30081;BME280;16902;50.816;12.828;2023-06-26T09:54:27;97661.41;;;28.50;75.23
30081;BME280;16902;50.816;12.828;2023-06-26T09:59:32;97657.72;;;28.74;76.26
30081;BME280;16902;50.816;12.828;2023-06-26T10:04:34;97654.06;;;28.56;74.07
30081;BME280;16902;50.816;12.828;2023-06-26T10:09:41;97644.44;;;28.55;66.14
30081;BME280;16902;50.816;12.828;2023-06-26T10:14:43;97646.34;;;28.90;73.55
30081;BME280;16902;50.816;12.828;2023-06-26T10:19:48;97643.97;;;29.03;78.88
30081;BME280;16902;50.816;12.828;2023-06-26T10:24:55;97634.69;;;29.23;64.75
30081;BME280;16902;50.816;12.828;2023-06-26T10:30:03;97641.81;;;29.72;61.66
30081;BME280;16902;50.816;12.828;2023-06-26T10:35:07;97628.94;;;30.14;51.82
30081;BME280;16902;50.816;12.828;2023-06-26T10:40:09;97625.97;;;29.93;53.53
30081;BME280;16902;50.816;12.828;2023-06-26T10:45:16;97629.91;;;29.87;60.34
30081;BME280;16902;50.816;12.828;2023-06-26T10:50:27;97619.59;;;30.60;53.84
30081;BME280;16902;50.816;12.828;2023-06-26T10:55:29;97614.53;;;30.58;55.41
30081;BME280;16902;50.816;12.828;2023-06-26T11:00:31;97614.75;;;30.13;57.43
30081;BME280;16902;50.816;12.828;2023-06-26T11:05:33;97611.28;;;31.05;56.94
30081;BME280;16902;50.816;12.828;2023-06-26T11:10:52;97602.25;;;31.18;53.52
30081;BME280;16902;50.816;12.828;2023-06-26T11:15:55;97597.16;;;33.49;60.82
30081;BME280;16902;50.816;12.828;2023-06-26T11:21:11;97604.72;;;34.50;40.14
30081;BME280;16902;50.816;12.828;2023-06-26T11:26:19;97605.00;;;34.73;37.66
30081;BME280;16902;50.816;12.828;2023-06-26T11:36:27;97590.59;;;36.84;36.58
30081;BME280;16902;50.816;12.828;2023-06-26T11:41:31;97595.53;;;37.55;32.87
30081;BME280;16902;50.816;12.828;2023-06-26T11:46:36;97590.28;;;38.95;31.36
30081;BME280;16902;50.816;12.828;2023-06-26T11:51:38;97584.53;;;39.34;32.91
30081;BME280;16902;50.816;12.828;2023-06-26T11:56:42;97583.03;;;40.32;29.86
30081;BME280;16902;50.816;12.828;2023-06-26T12:01:44;97570.38;;;40.06;30.42
30081;BME280;16902;50.816;12.828;2023-06-26T12:06:48;97557.78;;;39.88;32.52
30081;BME280;16902;50.816;12.828;2023-06-26T12:11:55;97553.25;;;39.62;31.49
30081;BME280;16902;50.816;12.828;2023-06-26T12:17:04;97563.25;;;39.47;29.55
30081;BME280;16902;50.816;12.828;2023-06-26T12:22:07;97567.16;;;38.78;30.91
30081;BME280;16902;50.816;12.828;2023-06-26T12:27:10;97559.78;;;37.76;31.87
30081;BME280;16902;50.816;12.828;2023-06-26T12:32:12;97552.25;;;39.77;30.34
30081;BME280;16902;50.816;12.828;2023-06-26T12:37:16;97556.22;;;41.36;30.12
30081;BME280;16902;50.816;12.828;2023-06-26T12:42:22;97551.69;;;44.10;26.77
30081;BME280;16902;50.816;12.828;2023-06-26T12:47:26;97547.84;;;42.79;28.47
30081;BME280;16902;50.816;12.828;2023-06-26T12:52:29;97542.44;;;42.57;28.09
30081;BME280;16902;50.816;12.828;2023-06-26T12:57:30;97537.34;;;42.67;28.94
30081;BME280;16902;50.816;12.828;2023-06-26T13:02:32;97530.34;;;40.18;29.45
30081;BME280;16902;50.816;12.828;2023-06-26T13:07:34;97518.38;;;40.33;30.11
30081;BME280;16902;50.816;12.828;2023-06-26T13:12:36;97519.56;;;40.39;28.51
30081;BME280;16902;50.816;12.828;2023-06-26T13:17:37;97511.31;;;41.94;29.16
30081;BME280;16902;50.816;12.828;2023-06-26T13:22:39;97499.63;;;40.31;29.02
30081;BME280;16902;50.816;12.828;2023-06-26T13:27:41;97505.00;;;40.97;28.09
30081;BME280;16902;50.816;12.828;2023-06-26T13:32:43;97490.31;;;40.40;29.63
30081;BME280;16902;50.816;12.828;2023-06-26T13:37:45;97477.69;;;39.14;31.68
30081;BME280;16902;50.816;12.828;2023-06-26T13:42:48;97476.28;;;38.56;31.79
30081;BME280;16902;50.816;12.828;2023-06-26T13:47:50;97469.16;;;36.96;34.20
30081;BME280;16902;50.816;12.828;2023-06-26T13:52:52;97468.38;;;39.15;31.82
30081;BME280;16902;50.816;12.828;2023-06-26T13:57:53;97465.59;;;39.12;31.42
30081;BME280;16902;50.816;12.828;2023-06-26T14:02:57;97456.94;;;39.91;30.80
30081;BME280;16902;50.816;12.828;2023-06-26T14:07:59;97455.97;;;40.28;31.19
30081;BME280;16902;50.816;12.828;2023-06-26T14:13:01;97446.88;;;41.29;28.71
30081;BME280;16902;50.816;12.828;2023-06-26T14:18:03;97447.97;;;42.21;28.68
30081;BME280;16902;50.816;12.828;2023-06-26T14:23:06;97426.56;;;44.17;27.64
30081;BME280;16902;50.816;12.828;2023-06-26T14:28:07;97422.47;;;45.40;27.04
30081;BME280;16902;50.816;12.828;2023-06-26T14:33:10;97405.91;;;44.39;26.32
30081;BME280;16902;50.816;12.828;2023-06-26T14:38:11;97403.88;;;44.74;25.75
30081;BME280;16902;50.816;12.828;2023-06-26T14:43:13;97411.81;;;45.19;24.89
30081;BME280;16902;50.816;12.828;2023-06-26T14:48:15;97398.72;;;43.80;26.48
30081;BME280;16902;50.816;12.828;2023-06-26T14:53:17;97374.16;;;35.96;33.51
30081;BME280;16902;50.816;12.828;2023-06-26T14:58:19;97361.41;;;34.66;38.13
30081;BME280;16902;50.816;12.828;2023-06-26T15:03:21;97365.22;;;32.62;43.06
30081;BME280;16902;50.816;12.828;2023-06-26T15:08:22;97371.63;;;31.06;52.34
30081;BME280;16902;50.816;12.828;2023-06-26T15:13:24;97407.09;;;29.69;61.40
30081;BME280;16902;50.816;12.828;2023-06-26T15:18:26;97431.69;;;27.70;100.00
30081;BME280;16902;50.816;12.828;2023-06-26T15:23:27;97435.00;;;24.29;100.00
30081;BME280;16902;50.816;12.828;2023-06-26T15:28:29;97427.47;;;22.76;100.00
30081;BME280;16902;50.816;12.828;2023-06-26T15:33:31;97410.63;;;21.89;100.00
30081;BME280;16902;50.816;12.828;2023-06-26T15:38:33;97418.66;;;21.46;100.00
30081;BME280;16902;50.816;12.828;2023-06-26T15:43:35;97418.41;;;21.43;100.00
30081;BME280;16902;50.816;12.828;2023-06-26T15:48:36;97423.22;;;21.56;100.00
30081;BME280;16902;50.816;12.828;2023-06-26T15:53:42;97438.38;;;24.79;100.00
30081;BME280;16902;50.816;12.828;2023-06-26T15:58:44;97457.38;;;27.84;100.00
30081;BME280;16902;50.816;12.828;2023-06-26T16:03:48;97465.19;;;27.07;100.00
30081;BME280;16902;50.816;12.828;2023-06-26T16:08:49;97471.75;;;27.14;100.00
30081;BME280;16902;50.816;12.828;2023-06-26T16:13:53;97474.38;;;25.63;100.00
30081;BME280;16902;50.816;12.828;2023-06-26T16:18:56;97478.13;;;24.70;100.00
30081;BME280;16902;50.816;12.828;2023-06-26T16:23:59;97478.44;;;24.14;100.00
30081;BME280;16902;50.816;12.828;2023-06-26T16:29:01;97502.28;;;23.49;100.00
30081;BME280;16902;50.816;12.828;2023-06-26T16:34:03;97512.47;;;23.12;100.00
30081;BME280;16902;50.816;12.828;2023-06-26T16:39:05;97510.59;;;23.12;100.00
30081;BME280;16902;50.816;12.828;2023-06-26T16:44:06;97504.50;;;23.17;100.00
30081;BME280;16902;50.816;12.828;2023-06-26T16:49:08;97525.16;;;23.50;100.00
30081;BME280;16902;50.816;12.828;2023-06-26T16:54:10;97527.56;;;23.47;100.00
30081;BME280;16902;50.816;12.828;2023-06-26T16:59:12;97543.50;;;23.11;100.00
30081;BME280;16902;50.816;12.828;2023-06-26T17:04:13;97555.66;;;22.87;100.00
30081;BME280;16902;50.816;12.828;2023-06-26T17:09:15;97572.47;;;22.92;100.00
30081;BME280;16902;50.816;12.828;2023-06-26T17:14:17;97573.78;;;22.90;100.00
30081;BME280;16902;50.816;12.828;2023-06-26T17:19:18;97569.03;;;23.07;100.00
30081;BME280;16902;50.816;12.828;2023-06-26T17:24:21;97587.41;;;22.41;100.00
30081;BME280;16902;50.816;12.828;2023-06-26T17:29:22;97598.63;;;22.00;100.00
30081;BME280;16902;50.816;12.828;2023-06-26T17:34:24;97613.91;;;21.51;100.00
30081;BME280;16902;50.816;12.828;2023-06-26T17:39:26;97613.28;;;21.12;100.00
30081;BME280;16902;50.816;12.828;2023-06-26T17:44:28;97622.84;;;20.86;100.00
30081;BME280;16902;50.816;12.828;2023-06-26T17:49:30;97624.38;;;20.60;100.00
30081;BME280;16902;50.816;12.828;2023-06-26T17:54:32;97638.59;;;20.32;100.00
30081;BME280;16902;50.816;12.828;2023-06-26T17:59:34;97637.78;;;20.31;100.00
30081;BME280;16902;50.816;12.828;2023-06-26T18:04:36;97640.97;;;20.33;100.00
30081;BME280;16902;50.816;12.828;2023-06-26T18:09:37;97646.25;;;20.33;100.00
30081;BME280;16902;50.816;12.828;2023-06-26T18:14:39;97665.38;;;20.40;100.00
30081;BME280;16902;50.816;12.828;2023-06-26T18:19:41;97648.50;;;20.41;100.00
30081;BME280;16902;50.816;12.828;2023-06-26T18:24:43;97649.91;;;20.49;100.00
30081;BME280;16902;50.816;12.828;2023-06-26T18:29:44;97657.44;;;20.40;100.00
30081;BME280;16902;50.816;12.828;2023-06-26T18:34:46;97660.59;;;20.37;100.00
30081;BME280;16902;50.816;12.828;2023-06-26T18:39:47;97669.00;;;20.34;100.00
30081;BME280;16902;50.816;12.828;2023-06-26T18:44:49;97667.28;;;20.23;100.00
30081;BME280;16902;50.816;12.828;2023-06-26T18:49:51;97665.78;;;20.10;100.00
30081;BME280;16902;50.816;12.828;2023-06-26T18:54:53;97685.06;;;20.11;100.00
30081;BME280;16902;50.816;12.828;2023-06-26T18:59:55;97698.47;;;20.04;100.00
30081;BME280;16902;50.816;12.828;2023-06-26T19:04:56;97692.31;;;19.98;100.00
30081;BME280;16902;50.816;12.828;2023-06-26T19:09:58;97685.91;;;19.94;100.00
30081;BME280;16902;50.816;12.828;2023-06-26T19:15:01;97693.28;;;19.92;100.00
30081;BME280;16902;50.816;12.828;2023-06-26T19:20:03;97686.53;;;19.85;100.00
30081;BME280;16902;50.816;12.828;2023-06-26T19:25:06;97698.47;;;19.70;100.00
30081;BME280;16902;50.816;12.828;2023-06-26T19:30:08;97706.72;;;19.74;100.00
30081;BME280;16902;50.816;12.828;2023-06-26T19:35:10;97698.38;;;19.65;100.00
30081;BME280;16902;50.816;12.828;2023-06-26T19:40:12;97706.56;;;19.64;100.00
30081;BME280;16902;50.816;12.828;2023-06-26T19:45:14;97708.63;;;19.62;100.00
30081;BME280;16902;50.816;12.828;2023-06-26T19:50:15;97711.50;;;19.60;100.00
30081;BME280;16902;50.816;12.828;2023-06-26T19:55:17;97713.91;;;19.62;100.00
30081;BME280;16902;50.816;12.828;2023-06-26T20:00:19;97714.69;;;19.62;100.00
30081;BME280;16902;50.816;12.828;2023-06-26T20:05:21;97717.91;;;19.64;100.00
30081;BME280;16902;50.816;12.828;2023-06-26T20:10:22;97720.44;;;19.59;100.00
30081;BME280;16902;50.816;12.828;2023-06-26T20:15:24;97731.59;;;19.61;100.00
30081;BME280;16902;50.816;12.828;2023-06-26T20:20:26;97721.91;;;19.67;100.00
30081;BME280;16902;50.816;12.828;2023-06-26T20:25:28;97730.16;;;19.70;100.00
30081;BME280;16902;50.816;12.828;2023-06-26T20:30:30;97718.44;;;19.49;100.00
30081;BME280;16902;50.816;12.828;2023-06-26T20:35:31;97720.28;;;19.49;100.00
30081;BME280;16902;50.816;12.828;2023-06-26T20:40:33;97731.94;;;19.65;100.00
30081;BME280;16902;50.816;12.828;2023-06-26T20:45:35;97734.66;;;19.70;100.00
30081;BME280;16902;50.816;12.828;2023-06-26T20:50:37;97726.78;;;19.58;100.00
30081;BME280;16902;50.816;12.828;2023-06-26T20:55:39;97727.16;;;19.50;100.00
30081;BME280;16902;50.816;12.828;2023-06-26T21:00:41;97723.91;;;19.31;100.00
30081;BME280;16902;50.816;12.828;2023-06-26T21:05:43;97732.34;;;19.16;100.00
30081;BME280;16902;50.816;12.828;2023-06-26T21:10:45;97729.81;;;19.10;100.00
30081;BME280;16902;50.816;12.828;2023-06-26T21:15:47;97741.22;;;19.10;100.00
30081;BME280;16902;50.816;12.828;2023-06-26T21:20:48;97749.88;;;19.22;100.00
30081;BME280;16902;50.816;12.828;2023-06-26T21:25:50;97758.25;;;19.19;100.00
30081;BME280;16902;50.816;12.828;2023-06-26T21:30:52;97759.00;;;19.03;100.00
30081;BME280;16902;50.816;12.828;2023-06-26T21:35:53;97756.41;;;18.91;100.00
30081;BME280;16902;50.816;12.828;2023-06-26T21:40:55;97746.56;;;18.75;100.00
30081;BME280;16902;50.816;12.828;2023-06-26T21:45:57;97750.91;;;18.58;100.00
30081;BME280;16902;50.816;12.828;2023-06-26T21:50:59;97756.28;;;18.51;100.00
30081;BME280;16902;50.816;12.828;2023-06-26T21:56:01;97753.00;;;18.44;100.00
30081;BME280;16902;50.816;12.828;2023-06-26T22:01:03;97762.38;;;18.40;100.00
30081;BME280;16902;50.816;12.828;2023-06-26T22:06:04;97767.19;;;18.31;100.00
30081;BME280;16902;50.816;12.828;2023-06-26T22:11:06;97771.09;;;18.29;100.00
30081;BME280;16902;50.816;12.828;2023-06-26T22:16:08;97768.94;;;18.37;100.00
30081;BME280;16902;50.816;12.828;2023-06-26T22:21:10;97768.34;;;18.35;100.00
30081;BME280;16902;50.816;12.828;2023-06-26T22:26:12;97784.38;;;18.22;100.00
30081;BME280;16902;50.816;12.828;2023-06-26T22:31:14;97786.41;;;18.08;100.00
30081;BME280;16902;50.816;12.828;2023-06-26T22:36:16;97792.72;;;18.07;100.00
30081;BME280;16902;50.816;12.828;2023-06-26T22:41:18;97799.00;;;17.94;100.00
30081;BME280;16902;50.816;12.828;2023-06-26T22:46:20;97794.19;;;17.91;100.00
30081;BME280;16902;50.816;12.828;2023-06-26T22:51:21;97804.69;;;17.80;100.00
30081;BME280;16902;50.816;12.828;2023-06-26T22:56:23;97815.25;;;17.91;100.00
30081;BME280;16902;50.816;12.828;2023-06-26T23:01:28;97813.72;;;17.84;100.00
30081;BME280;16902;50.816;12.828;2023-06-26T23:06:29;97826.69;;;17.67;100.00
30081;BME280;16902;50.816;12.828;2023-06-26T23:11:31;97832.50;;;17.57;100.00
30081;BME280;16902;50.816;12.828;2023-06-26T23:16:33;97832.09;;;17.42;100.00
30081;BME280;16902;50.816;12.828;2023-06-26T23:21:35;97837.56;;;17.40;100.00
30081;BME280;16902;50.816;12.828;2023-06-26T23:26:37;97827.50;;;17.19;100.00
30081;BME280;16902;50.816;12.828;2023-06-26T23:31:39;97832.25;;;17.10;100.00
30081;BME280;16902;50.816;12.828;2023-06-26T23:36:41;97836.13;;;17.08;100.00
30081;BME280;16902;50.816;12.828;2023-06-26T23:41:43;97836.66;;;16.98;100.00
30081;BME280;16902;50.816;12.828;2023-06-26T23:46:45;97832.31;;;16.85;100.00
30081;BME280;16902;50.816;12.828;2023-06-26T23:51:47;97842.31;;;16.77;100.00
30081;BME280;16902;50.816;12.828;2023-06-26T23:56:50;97835.53;;;16.62;100.00
